Troy, North Carolina
Current Conditions -  °F | °C
As of 8:35 PM on Friday 19 Dec 2014 (Local Time) from KVUJ Reporting Station
Clear Clear  
Wind Chill: 39°   Ceiling: Unl
Heat Index: 39°   Visibility: 10mi
Dew Point: 34°   Wind: 0mph
Humidity: 83%   Direction: NA
Pressure: 30.22"   Gusts: NA
Location:  35.36°N, 79.89°W
Report Text: KVUJ 200135Z AUTO 00000KT 10SM CLR 04/01 A3022 RMK AO2 T00380012
Loading
Personal Weather Stations






























Interactive Weather Map New forecast layout! Learn more

10-Day Weather Forecast

Advertisements
Track Severe Weather on mobile